createdAt,value
2017-10-09T00:01:26.718Z,12.00
2017-10-09T00:03:54.506Z,11.90
2017-10-09T00:06:21.937Z,11.90
2017-10-09T00:08:49.387Z,11.80
2017-10-09T00:11:16.833Z,11.70
2017-10-09T00:13:45.033Z,11.60
2017-10-09T00:16:12.922Z,11.60
2017-10-09T00:18:40.361Z,11.60
2017-10-09T00:21:07.806Z,11.60
2017-10-09T00:23:35.250Z,11.60
2017-10-09T00:26:02.767Z,11.60
2017-10-09T00:28:30.213Z,11.50
2017-10-09T00:30:57.650Z,11.50
2017-10-09T00:33:25.430Z,11.50
2017-10-09T00:35:52.874Z,11.50
2017-10-09T00:38:20.311Z,11.60
2017-10-09T00:40:47.749Z,11.60
2017-10-09T00:43:15.941Z,11.60
2017-10-09T00:45:43.397Z,11.50
2017-10-09T00:48:10.833Z,11.60
2017-10-09T00:50:39.314Z,11.50
2017-10-09T00:53:07.508Z,11.50
2017-10-09T00:55:34.940Z,11.50
2017-10-09T00:58:03.897Z,11.40
2017-10-09T01:00:31.363Z,11.40
2017-10-09T01:02:58.817Z,11.40
2017-10-09T01:05:26.261Z,11.40
2017-10-09T01:07:54.038Z,11.30
2017-10-09T01:10:21.478Z,11.30
2017-10-09T01:12:48.910Z,11.30
2017-10-09T01:15:16.409Z,11.20
2017-10-09T01:17:43.874Z,11.20
2017-10-09T01:20:11.629Z,11.10
2017-10-09T01:22:39.074Z,11.10
2017-10-09T01:25:06.554Z,11.10
2017-10-09T01:27:33.997Z,11.10
2017-10-09T01:30:01.442Z,11.00
2017-10-09T01:32:29.227Z,11.00
2017-10-09T01:34:56.690Z,11.00
2017-10-09T01:37:24.142Z,11.00
2017-10-09T01:39:51.696Z,11.00
2017-10-09T01:42:19.133Z,11.00
2017-10-09T01:44:46.642Z,11.00
2017-10-09T01:47:14.081Z,11.00
2017-10-09T01:49:41.834Z,11.00
2017-10-09T01:52:09.294Z,11.00
2017-10-09T01:54:36.739Z,11.00
2017-10-09T01:57:04.228Z,11.00
2017-10-09T01:59:31.654Z,11.00
2017-10-09T02:01:59.100Z,11.00
2017-10-09T02:04:26.529Z,11.00
2017-10-09T02:06:55.058Z,11.00
2017-10-09T02:09:22.612Z,11.00
2017-10-09T02:11:50.090Z,11.00
2017-10-09T02:14:17.543Z,11.00
2017-10-09T02:16:44.977Z,11.00
2017-10-09T02:19:12.428Z,11.00
2017-10-09T02:21:39.869Z,11.00
2017-10-09T02:24:07.586Z,11.00
2017-10-09T02:26:35.219Z,11.00
2017-10-09T02:29:02.663Z,11.10
2017-10-09T02:31:30.109Z,11.10
2017-10-09T02:33:57.607Z,11.10
2017-10-09T02:36:25.060Z,11.10
2017-10-09T02:38:52.499Z,11.10
2017-10-09T02:41:20.287Z,11.20
2017-10-09T02:43:47.725Z,11.20
2017-10-09T02:46:15.162Z,11.20
2017-10-09T02:48:42.618Z,11.20
2017-10-09T02:51:10.054Z,11.20
2017-10-09T02:53:38.274Z,11.30
2017-10-09T02:56:05.832Z,11.20
2017-10-09T02:58:33.621Z,11.30
2017-10-09T03:01:01.074Z,11.40
2017-10-09T03:03:28.613Z,11.40
2017-10-09T03:05:56.046Z,11.30
2017-10-09T03:08:23.481Z,11.30
2017-10-09T03:10:51.734Z,11.20
2017-10-09T03:13:20.754Z,11.10
2017-10-09T03:15:49.297Z,11.10
2017-10-09T03:18:16.740Z,11.10
2017-10-09T03:20:44.178Z,11.10
2017-10-09T03:23:17.210Z,11.10
2017-10-09T03:25:45.557Z,11.10
2017-10-09T03:28:13.001Z,11.10
2017-10-09T03:30:40.461Z,11.10
2017-10-09T03:33:07.950Z,11.10
2017-10-09T03:35:35.386Z,11.10
2017-10-09T03:38:02.830Z,11.10
2017-10-09T03:40:30.273Z,11.20
2017-10-09T03:42:58.771Z,11.20
2017-10-09T03:45:26.197Z,11.20
2017-10-09T03:47:53.716Z,11.20
2017-10-09T03:50:21.200Z,11.20
2017-10-09T03:52:48.649Z,11.20
2017-10-09T03:55:16.089Z,11.20
2017-10-09T03:57:43.636Z,11.20
2017-10-09T04:00:11.065Z,11.20
2017-10-09T04:02:38.502Z,11.10
2017-10-09T04:05:07.046Z,11.10
2017-10-09T04:07:35.254Z,11.10
2017-10-09T04:10:02.690Z,11.00
2017-10-09T04:12:30.137Z,11.00
2017-10-09T04:14:57.576Z,11.10
2017-10-09T04:17:25.361Z,11.10
2017-10-09T04:19:52.805Z,11.10
2017-10-09T04:22:20.262Z,11.00
2017-10-09T04:24:47.706Z,11.10
2017-10-09T04:27:15.159Z,11.10
2017-10-09T04:29:42.595Z,11.10
2017-10-09T04:32:10.802Z,11.10
2017-10-09T04:34:38.585Z,11.00
2017-10-09T04:37:06.034Z,11.10
2017-10-09T04:39:33.502Z,11.10
2017-10-09T04:42:00.953Z,11.10
2017-10-09T04:44:28.513Z,11.10
2017-10-09T04:46:56.281Z,11.10
2017-10-09T04:49:23.726Z,11.10
2017-10-09T04:51:51.209Z,11.20
2017-10-09T04:54:18.653Z,11.20
2017-10-09T04:56:46.113Z,11.20
2017-10-09T04:59:13.849Z,11.30
2017-10-09T05:01:41.282Z,11.30
2017-10-09T05:04:09.496Z,11.30
2017-10-09T05:06:36.939Z,11.30
2017-10-09T05:09:04.372Z,11.30
2017-10-09T05:11:32.841Z,11.40
2017-10-09T05:14:00.281Z,11.30
2017-10-09T05:16:27.717Z,11.40
2017-10-09T05:18:55.173Z,11.40
2017-10-09T05:21:22.617Z,11.40
2017-10-09T05:23:50.394Z,11.40
2017-10-09T05:26:17.830Z,11.40
2017-10-09T05:28:45.265Z,11.50
2017-10-09T05:31:13.738Z,11.50
2017-10-09T05:33:41.947Z,11.50
2017-10-09T05:36:09.379Z,11.40
2017-10-09T05:38:37.594Z,11.50
2017-10-09T05:41:05.041Z,11.40
2017-10-09T05:43:32.477Z,11.50
2017-10-09T05:45:59.915Z,11.50
2017-10-09T05:48:28.393Z,11.40
2017-10-09T05:50:56.595Z,11.40
2017-10-09T05:53:24.038Z,11.40
2017-10-09T05:55:51.547Z,11.40
2017-10-09T05:58:18.996Z,11.40
2017-10-09T06:00:46.553Z,11.40
2017-10-09T06:03:14.008Z,11.40
2017-10-09T06:05:41.886Z,11.40
2017-10-09T06:08:09.341Z,11.30
2017-10-09T06:10:36.789Z,11.40
2017-10-09T06:13:04.238Z,11.40
2017-10-09T06:15:31.718Z,11.40
2017-10-09T06:17:59.482Z,11.40
2017-10-09T06:20:26.936Z,11.50
2017-10-09T06:22:54.397Z,11.50
2017-10-09T06:25:21.870Z,11.50
2017-10-09T06:27:49.304Z,11.60
2017-10-09T06:30:16.769Z,11.60
2017-10-09T06:32:44.204Z,11.70
2017-10-09T06:35:11.973Z,11.70
2017-10-09T06:37:39.408Z,11.80
2017-10-09T06:40:06.918Z,11.90
2017-10-09T06:42:34.361Z,12.00
2017-10-09T06:45:01.802Z,12.10
2017-10-09T06:47:29.242Z,12.20
2017-10-09T06:49:56.690Z,12.20
2017-10-09T06:52:24.134Z,12.30
2017-10-09T06:54:52.340Z,12.40
2017-10-09T06:57:20.129Z,12.30
2017-10-09T06:59:48.334Z,12.30
2017-10-09T07:02:15.773Z,12.30
2017-10-09T07:04:43.314Z,12.30
2017-10-09T07:07:10.754Z,12.30
2017-10-09T07:09:38.206Z,12.40
2017-10-09T07:12:05.645Z,12.40
2017-10-09T07:14:33.862Z,12.40
2017-10-09T07:17:01.304Z,12.40
2017-10-09T07:19:29.088Z,12.50
2017-10-09T07:21:56.533Z,12.60
2017-10-09T07:24:23.970Z,12.60
2017-10-09T07:26:51.548Z,12.70
2017-10-09T07:29:18.970Z,12.80
2017-10-09T07:31:47.701Z,13.00
2017-10-09T07:34:15.133Z,13.00
2017-10-09T07:36:42.579Z,13.10
2017-10-09T07:39:10.791Z,13.30
2017-10-09T07:41:38.226Z,13.20
2017-10-09T07:44:06.001Z,13.40
2017-10-09T07:46:33.414Z,13.40
2017-10-09T07:49:01.630Z,13.50
2017-10-09T07:51:29.074Z,13.40
2017-10-09T07:53:56.510Z,13.50
2017-10-09T07:56:24.748Z,13.70
2017-10-09T07:58:52.182Z,13.70
2017-10-09T08:01:19.639Z,13.90
2017-10-09T08:03:47.092Z,14.00
2017-10-09T08:06:14.869Z,14.00
2017-10-09T08:08:43.069Z,14.00
2017-10-09T08:11:10.521Z,14.00
2017-10-09T08:13:38.005Z,14.10
2017-10-09T08:16:06.206Z,14.30
2017-10-09T08:18:34.073Z,14.20
2017-10-09T08:21:02.270Z,14.50
2017-10-09T08:23:30.182Z,14.40
2017-10-09T08:25:57.706Z,14.60
2017-10-09T08:28:25.178Z,14.70
2017-10-09T08:30:53.026Z,14.90
2017-10-09T08:33:20.469Z,15.00
2017-10-09T08:35:47.933Z,15.10
2017-10-09T08:38:15.426Z,15.30
2017-10-09T08:43:17.851Z,15.80
2017-10-09T08:45:46.135Z,16.10
2017-10-09T08:50:48.162Z,16.60
2017-10-09T08:53:15.696Z,16.60
2017-10-09T08:55:43.208Z,16.80
2017-10-09T09:03:16.726Z,18.20
2017-10-09T09:05:44.223Z,19.30
2017-10-09T09:08:12.482Z,21.00
2017-10-09T09:18:20.607Z,19.50
2017-10-09T09:20:48.120Z,19.00
2017-10-09T09:23:16.424Z,18.10
2017-10-09T09:25:43.907Z,18.00
2017-10-09T09:28:11.407Z,17.60
2017-10-09T09:30:39.646Z,17.00
2017-10-09T09:33:07.177Z,16.90
2017-10-09T09:38:07.473Z,16.60
2017-10-09T09:45:41.496Z,16.40
2017-10-09T09:48:10.478Z,16.50
2017-10-09T09:55:43.850Z,16.50
2017-10-09T09:58:12.055Z,16.60
2017-10-09T10:00:40.270Z,16.80
2017-10-09T10:03:07.715Z,16.70
2017-10-09T10:05:35.162Z,16.80
2017-10-09T10:08:02.598Z,16.90
2017-10-09T10:10:30.383Z,16.90
2017-10-09T10:12:57.927Z,17.00
2017-10-09T10:15:25.345Z,17.30
2017-10-09T10:17:53.559Z,18.10
2017-10-09T10:20:20.997Z,18.00
2017-10-09T10:22:48.803Z,18.40
2017-10-09T10:25:16.239Z,18.80
2017-10-09T10:27:43.674Z,20.10
2017-10-09T10:30:11.123Z,21.20
2017-10-09T10:32:39.322Z,21.80
2017-10-09T10:35:06.781Z,21.70
2017-10-09T10:37:34.226Z,21.50
2017-10-09T10:40:01.974Z,21.20
2017-10-09T10:42:30.170Z,20.50
2017-10-09T10:44:57.617Z,20.50
2017-10-09T10:47:25.081Z,20.30
2017-10-09T10:49:52.554Z,20.20
2017-10-09T10:52:19.984Z,20.10
2017-10-09T10:54:47.438Z,19.90
2017-10-09T10:57:15.652Z,19.30
2017-10-09T10:59:43.091Z,19.20
2017-10-09T11:02:10.881Z,19.00
2017-10-09T11:04:39.138Z,18.90
2017-10-09T11:07:06.561Z,18.80
2017-10-09T11:09:34.781Z,18.60
2017-10-09T11:12:02.225Z,18.50
2017-10-09T11:14:29.682Z,18.50
2017-10-09T11:16:57.134Z,18.40
2017-10-09T11:19:24.832Z,18.40
2017-10-09T11:21:52.274Z,18.40
2017-10-09T11:24:19.726Z,18.50
2017-10-09T11:26:47.165Z,18.60
2017-10-09T11:29:14.611Z,18.70
2017-10-09T11:31:42.830Z,18.80
2017-10-09T11:34:10.270Z,18.70
2017-10-09T11:36:38.017Z,18.70
2017-10-09T11:39:05.486Z,18.50
2017-10-09T11:41:32.921Z,18.40
2017-10-09T11:44:01.126Z,18.40
2017-10-09T11:46:28.561Z,18.40
2017-10-09T11:48:56.271Z,18.50
2017-10-09T11:51:23.710Z,18.50
2017-10-09T11:53:51.148Z,18.50
2017-10-09T11:56:18.585Z,18.30
2017-10-09T11:58:46.029Z,18.10
2017-10-09T12:01:14.237Z,17.80
2017-10-09T12:03:41.678Z,17.70
2017-10-09T12:06:10.187Z,17.50
2017-10-09T12:08:37.610Z,17.40
2017-10-09T12:11:05.816Z,17.30
2017-10-09T12:13:33.261Z,17.30
2017-10-09T12:16:00.698Z,17.30
2017-10-09T12:18:28.909Z,17.40
2017-10-09T12:20:56.349Z,17.40
2017-10-09T12:23:24.154Z,17.50
2017-10-09T12:25:51.592Z,17.50
2017-10-09T12:28:19.030Z,17.70
2017-10-09T12:30:46.477Z,17.80
2017-10-09T12:33:14.685Z,19.60
2017-10-09T12:35:42.464Z,19.50
2017-10-09T12:38:09.901Z,21.40
2017-10-09T12:40:37.342Z,22.80
2017-10-09T12:43:04.818Z,23.60
2017-10-09T12:45:32.242Z,24.70
2017-10-09T12:47:59.685Z,24.50
2017-10-09T12:50:27.885Z,24.60
2017-10-09T12:52:55.682Z,24.60
2017-10-09T12:55:23.117Z,24.10
2017-10-09T12:57:50.554Z,23.60
2017-10-09T13:00:17.999Z,22.90
2017-10-09T13:02:46.194Z,21.70
2017-10-09T13:05:13.674Z,21.60
2017-10-09T13:07:41.092Z,21.10
2017-10-09T13:10:09.587Z,20.30
2017-10-09T13:12:37.088Z,20.20
2017-10-09T13:15:04.547Z,20.00
2017-10-09T13:17:32.101Z,19.90
2017-10-09T13:19:59.562Z,19.60
2017-10-09T13:22:27.289Z,19.40
2017-10-09T13:24:55.606Z,19.40
2017-10-09T13:27:23.045Z,19.50
2017-10-09T13:29:50.507Z,19.40
2017-10-09T13:32:17.930Z,19.30
2017-10-09T13:34:45.769Z,19.30
2017-10-09T13:37:13.305Z,19.30
2017-10-09T13:39:40.766Z,19.20
2017-10-09T13:42:08.311Z,19.00
2017-10-09T13:44:35.760Z,18.80
2017-10-09T13:47:03.258Z,18.70
2017-10-09T13:52:04.142Z,18.60
2017-10-09T13:54:31.643Z,18.50
2017-10-09T13:56:59.143Z,18.30
2017-10-09T14:04:32.265Z,18.00
2017-10-09T14:06:59.746Z,17.90
2017-10-09T14:09:28.326Z,17.80
2017-10-09T14:11:56.588Z,17.80
2017-10-09T14:14:24.910Z,17.70
2017-10-09T14:24:31.183Z,17.50
2017-10-09T14:26:59.440Z,17.60
2017-10-09T14:41:50.039Z,18.50
2017-10-09T14:44:18.311Z,18.50
2017-10-09T14:46:45.795Z,18.50
2017-10-09T14:49:14.058Z,18.50
2017-10-09T14:51:42.327Z,18.40
2017-10-09T14:54:10.650Z,18.30
2017-10-09T14:56:38.130Z,18.20
2017-10-09T14:59:05.627Z,18.30
2017-10-09T15:01:33.912Z,18.40
2017-10-09T15:04:02.160Z,18.30
2017-10-09T15:06:29.668Z,18.30
2017-10-09T15:08:57.171Z,18.30
2017-10-09T15:11:24.667Z,18.20
2017-10-09T15:13:52.928Z,18.00
2017-10-09T15:16:21.216Z,17.90
2017-10-09T15:18:49.477Z,17.70
2017-10-09T15:21:16.960Z,17.70
2017-10-09T15:23:45.218Z,17.50
2017-10-09T15:26:13.492Z,17.40
2017-10-09T15:28:41.006Z,17.40
2017-10-09T15:31:08.501Z,17.30
2017-10-09T15:33:36.771Z,17.20
2017-10-09T15:36:04.277Z,17.20
2017-10-09T15:38:31.787Z,17.20
2017-10-09T15:41:00.059Z,17.30
2017-10-09T15:43:27.538Z,17.30
2017-10-09T15:45:55.793Z,17.20
2017-10-09T15:48:23.298Z,17.20
2017-10-09T15:50:50.783Z,17.20
2017-10-09T15:53:18.286Z,17.10
2017-10-09T15:55:46.573Z,17.00
2017-10-09T15:58:14.079Z,16.90
2017-10-09T16:00:41.577Z,16.90
2017-10-09T16:03:09.838Z,16.80
2017-10-09T16:05:37.324Z,16.80
2017-10-09T16:08:05.602Z,16.70
2017-10-09T16:10:33.860Z,16.70
2017-10-09T16:13:01.340Z,16.70
2017-10-09T16:15:29.615Z,16.70
2017-10-09T16:17:57.863Z,16.60
2017-10-09T16:20:25.379Z,16.60
2017-10-09T16:22:52.866Z,16.60
2017-10-09T16:25:20.352Z,16.60
2017-10-09T16:27:48.623Z,16.50
2017-10-09T16:30:16.109Z,16.40
2017-10-09T16:32:43.659Z,16.40
2017-10-09T16:35:11.906Z,16.30
2017-10-09T16:37:39.731Z,16.30
2017-10-09T16:40:07.234Z,16.30
2017-10-09T16:42:34.714Z,16.20
2017-10-09T16:45:02.980Z,16.10
2017-10-09T16:47:31.242Z,16.10
2017-10-09T16:49:58.812Z,16.00
2017-10-09T16:52:26.299Z,16.00
2017-10-09T16:54:53.782Z,16.00
2017-10-09T16:57:21.291Z,16.00
2017-10-09T16:59:48.862Z,15.90
2017-10-09T17:02:17.139Z,15.90
2017-10-09T17:04:45.386Z,15.90
2017-10-09T17:07:12.887Z,15.80
2017-10-09T17:09:40.367Z,15.80
2017-10-09T17:12:07.855Z,15.80
2017-10-09T17:14:35.516Z,15.70
2017-10-09T17:17:03.000Z,15.70
2017-10-09T17:19:31.263Z,15.60
2017-10-09T17:21:58.752Z,15.50
2017-10-09T17:24:27.062Z,15.50
2017-10-09T17:26:54.610Z,15.50
2017-10-09T17:29:22.099Z,15.50
2017-10-09T17:31:49.599Z,15.50
2017-10-09T17:34:17.859Z,15.40
2017-10-09T17:36:45.362Z,15.30
2017-10-09T17:39:12.864Z,15.40
2017-10-09T17:41:40.352Z,15.30
2017-10-09T17:44:08.621Z,15.20
2017-10-09T17:46:36.867Z,15.20
2017-10-09T17:49:04.376Z,15.10
2017-10-09T17:51:32.638Z,15.20
2017-10-09T17:54:00.926Z,15.20
2017-10-09T17:56:28.426Z,15.10
2017-10-09T17:58:55.917Z,15.20
2017-10-09T18:01:24.192Z,15.20
2017-10-09T18:03:51.766Z,15.10
2017-10-09T18:06:20.039Z,15.20
2017-10-09T18:08:48.293Z,15.20
2017-10-09T18:11:15.775Z,15.10
2017-10-09T18:13:44.059Z,15.20
2017-10-09T18:16:12.331Z,15.20
2017-10-09T18:18:40.593Z,15.20
2017-10-09T18:21:08.183Z,15.20
2017-10-09T18:23:36.275Z,15.20
2017-10-09T18:26:04.859Z,15.10
2017-10-09T18:28:32.414Z,15.10
2017-10-09T18:30:59.939Z,15.10
2017-10-09T18:33:28.223Z,15.00
2017-10-09T18:35:56.519Z,15.00
2017-10-09T18:38:24.015Z,14.90
2017-10-09T18:40:51.518Z,15.00
2017-10-09T18:43:19.793Z,15.00
2017-10-09T18:45:48.116Z,14.90
2017-10-09T18:48:15.870Z,14.90
2017-10-09T18:50:43.354Z,14.90
2017-10-09T18:53:10.863Z,14.90
2017-10-09T18:55:39.407Z,14.90
2017-10-09T18:58:08.049Z,14.90
2017-10-09T19:00:35.600Z,14.90
2017-10-09T19:03:03.088Z,14.90
2017-10-09T19:05:30.589Z,14.90
2017-10-09T19:07:58.859Z,14.90
2017-10-09T19:10:27.118Z,14.90
2017-10-09T19:12:54.604Z,14.80
2017-10-09T19:15:22.879Z,14.90
2017-10-09T19:17:51.127Z,14.90
2017-10-09T19:20:18.615Z,14.90
2017-10-09T19:22:46.876Z,14.90
2017-10-09T19:25:14.362Z,14.80
2017-10-09T19:27:41.867Z,14.90
2017-10-09T19:30:09.355Z,14.80
2017-10-09T19:32:38.360Z,14.80
2017-10-09T19:35:06.608Z,14.80
2017-10-09T19:37:34.111Z,14.70
2017-10-09T19:40:01.603Z,14.80
2017-10-09T19:42:29.139Z,14.70
2017-10-09T19:44:56.635Z,14.70
2017-10-09T19:47:24.127Z,14.70
2017-10-09T19:49:52.395Z,14.60
2017-10-09T19:52:21.387Z,14.60
2017-10-09T19:54:49.667Z,14.60
2017-10-09T19:57:17.925Z,14.60
2017-10-09T19:59:45.422Z,14.50
2017-10-09T20:02:13.680Z,14.50
2017-10-09T20:04:42.011Z,14.50
2017-10-09T20:07:09.666Z,14.40
2017-10-09T20:09:37.170Z,14.40
2017-10-09T20:12:04.669Z,14.40
2017-10-09T20:14:32.230Z,14.30
2017-10-09T20:16:59.714Z,14.30
2017-10-09T20:19:27.255Z,14.30
2017-10-09T20:21:54.739Z,14.30
2017-10-09T20:24:22.256Z,14.30
2017-10-09T20:26:49.757Z,14.30
2017-10-09T20:29:17.272Z,14.30
2017-10-09T20:31:45.591Z,14.30
2017-10-09T20:34:13.084Z,14.20
2017-10-09T20:36:41.354Z,14.20
2017-10-09T20:39:09.612Z,14.20
2017-10-09T20:41:37.377Z,14.20
2017-10-09T20:44:04.857Z,14.20
2017-10-09T20:46:32.459Z,14.30
2017-10-09T20:48:59.952Z,14.30
2017-10-09T20:51:27.458Z,14.30
2017-10-09T20:53:54.960Z,14.30
2017-10-09T20:56:22.446Z,14.30
2017-10-09T20:58:49.952Z,14.30
2017-10-09T21:01:17.448Z,14.30
2017-10-09T21:03:44.967Z,14.30
2017-10-09T21:06:12.472Z,14.30
2017-10-09T21:08:39.958Z,14.30
2017-10-09T21:11:08.227Z,14.30
2017-10-09T21:13:36.488Z,14.30
2017-10-09T21:16:04.012Z,14.20
2017-10-09T21:18:31.556Z,14.30
2017-10-09T21:20:59.049Z,14.20
2017-10-09T21:23:26.551Z,14.20
2017-10-09T21:25:54.038Z,14.20
2017-10-09T21:28:21.526Z,14.20
2017-10-09T21:30:49.012Z,14.20
2017-10-09T21:33:17.293Z,14.20
2017-10-09T21:35:45.603Z,14.10
2017-10-09T21:38:13.085Z,14.10
2017-10-09T21:40:40.613Z,14.10
2017-10-09T21:43:08.107Z,14.10
2017-10-09T21:45:35.599Z,14.10
2017-10-09T21:48:03.847Z,14.10
2017-10-09T21:50:31.364Z,14.10
2017-10-09T21:52:58.852Z,14.10
2017-10-09T21:55:26.370Z,14.10
2017-10-09T21:57:54.624Z,14.10
2017-10-09T22:00:22.871Z,14.10
2017-10-09T22:02:50.358Z,14.10
2017-10-09T22:05:18.612Z,14.10
2017-10-09T22:07:47.680Z,14.10
2017-10-09T22:10:15.228Z,14.10
2017-10-09T22:12:42.745Z,14.10
2017-10-09T22:15:10.998Z,14.10
2017-10-09T22:17:38.509Z,14.10
2017-10-09T22:20:06.020Z,14.10
2017-10-09T22:22:33.514Z,14.10
2017-10-09T22:25:01.770Z,14.00
2017-10-09T22:27:30.022Z,13.90
2017-10-09T22:29:57.514Z,13.90
2017-10-09T22:32:25.766Z,13.90
2017-10-09T22:34:53.277Z,13.90
2017-10-09T22:37:20.762Z,13.90
2017-10-09T22:39:48.255Z,13.90
2017-10-09T22:42:15.742Z,13.90
2017-10-09T22:44:43.983Z,13.90
2017-10-09T22:47:11.474Z,13.80
2017-10-09T22:49:38.961Z,13.90
2017-10-09T22:52:06.483Z,13.90
2017-10-09T22:54:41.441Z,13.90
2017-10-09T22:57:08.941Z,13.80
2017-10-09T22:59:36.474Z,13.80
2017-10-09T23:02:03.967Z,13.80
2017-10-09T23:04:31.472Z,13.70
2017-10-09T23:06:58.967Z,13.70
2017-10-09T23:09:26.495Z,13.60
2017-10-09T23:11:53.991Z,13.60
2017-10-09T23:14:21.475Z,13.60
2017-10-09T23:16:49.910Z,13.60
2017-10-09T23:19:17.393Z,13.50
2017-10-09T23:21:44.912Z,13.60
2017-10-09T23:24:12.405Z,13.50
2017-10-09T23:26:39.924Z,13.50
2017-10-09T23:29:07.415Z,13.50
2017-10-09T23:31:34.902Z,13.50
2017-10-09T23:34:03.167Z,13.50
2017-10-09T23:36:30.643Z,13.40
2017-10-09T23:38:58.898Z,13.50
2017-10-09T23:41:26.383Z,13.40
2017-10-09T23:43:54.626Z,13.40
2017-10-09T23:46:22.130Z,13.40
2017-10-09T23:48:49.640Z,13.40
2017-10-09T23:51:17.119Z,13.40
2017-10-09T23:53:44.625Z,13.40
2017-10-09T23:56:12.107Z,13.40
2017-10-09T23:58:39.690Z,13.40
